createdAt,value
2018-12-22T00:00:02.426Z,10.32
2018-12-22T00:01:02.436Z,10.32
2018-12-22T00:02:02.470Z,10.24
2018-12-22T00:03:02.480Z,10.24
2018-12-22T00:04:02.439Z,10.25
2018-12-22T00:05:02.486Z,10.32
2018-12-22T00:06:02.366Z,10.25
2018-12-22T00:07:02.461Z,10.25
2018-12-22T00:08:02.483Z,10.24
2018-12-22T00:09:02.532Z,10.25
2018-12-22T00:10:02.484Z,10.28
2018-12-22T00:11:02.470Z,10.16
2018-12-22T00:12:02.735Z,10.13
2018-12-22T00:13:02.555Z,10.22
2018-12-22T00:14:08.475Z,10.18
2018-12-22T00:15:02.473Z,10.17
2018-12-22T00:16:02.516Z,10.31
2018-12-22T00:17:04.473Z,10.13
2018-12-22T00:18:02.479Z,10.16
2018-12-22T00:19:02.471Z,10.16
2018-12-22T00:20:02.481Z,10.14
2018-12-22T00:21:02.532Z,10.20
2018-12-22T00:22:02.890Z,10.20
2018-12-22T00:23:02.473Z,10.24
2018-12-22T00:24:02.473Z,10.24
2018-12-22T00:25:02.511Z,10.20
2018-12-22T00:26:02.518Z,10.31
2018-12-22T00:27:02.482Z,10.18
2018-12-22T00:28:02.508Z,10.18
2018-12-22T00:29:02.567Z,10.09
2018-12-22T00:30:02.843Z,10.14
2018-12-22T00:31:02.535Z,10.06
2018-12-22T00:32:02.433Z,10.16
2018-12-22T00:33:02.476Z,10.11
2018-12-22T00:34:02.441Z,10.06
2018-12-22T00:35:02.573Z,10.22
2018-12-22T00:36:16.516Z,10.14
2018-12-22T00:37:02.385Z,10.13
2018-12-22T00:38:02.486Z,10.07
2018-12-22T00:39:02.489Z,9.99
2018-12-22T00:40:02.477Z,9.98
2018-12-22T00:41:02.436Z,9.98
2018-12-22T00:42:02.576Z,10.09
2018-12-22T00:43:02.569Z,10.10
2018-12-22T00:44:16.578Z,9.99
2018-12-22T00:45:02.482Z,10.10
2018-12-22T00:46:02.449Z,10.11
2018-12-22T00:47:02.489Z,10.16
2018-12-22T00:48:02.480Z,10.07
2018-12-22T00:49:02.900Z,10.04
2018-12-22T00:50:02.566Z,10.11
2018-12-22T00:51:02.455Z,10.16
2018-12-22T00:52:02.478Z,10.11
2018-12-22T00:53:02.548Z,10.24
2018-12-22T00:54:02.481Z,10.06
2018-12-22T00:55:02.487Z,10.14
2018-12-22T00:56:02.479Z,10.17
2018-12-22T00:57:02.947Z,10.10
2018-12-22T00:58:02.017Z,10.14
2018-12-22T00:59:02.694Z,10.20
2018-12-22T01:00:02.433Z,10.18
2018-12-22T01:01:02.430Z,10.09
2018-12-22T01:02:02.566Z,10.14
2018-12-22T01:03:07.855Z,10.11
2018-12-22T01:04:02.511Z,10.16
2018-12-22T01:05:02.453Z,10.20
2018-12-22T01:06:02.049Z,10.18
2018-12-22T01:07:01.921Z,10.10
2018-12-22T01:08:01.951Z,10.11
2018-12-22T01:09:02.030Z,10.13
2018-12-22T01:10:02.492Z,10.13
2018-12-22T01:11:02.366Z,10.20
2018-12-22T01:12:01.957Z,10.20
2018-12-22T01:13:01.976Z,10.18
2018-12-22T01:14:02.339Z,10.10
2018-12-22T01:15:01.976Z,9.99
2018-12-22T01:16:01.967Z,10.06
2018-12-22T01:17:01.909Z,10.09
2018-12-22T01:18:01.899Z,10.06
2018-12-22T01:19:01.889Z,10.14
2018-12-22T01:20:01.993Z,10.13
2018-12-22T01:21:01.995Z,10.11
2018-12-22T01:22:01.960Z,10.10
2018-12-22T01:23:01.974Z,10.18
2018-12-22T01:24:01.889Z,10.10
2018-12-22T01:25:02.405Z,10.01
2018-12-22T01:26:01.399Z,9.98
2018-12-22T01:27:01.904Z,9.96
2018-12-22T01:28:01.847Z,10.02
2018-12-22T01:29:01.770Z,9.98
2018-12-22T01:30:01.917Z,10.01
2018-12-22T01:31:01.604Z,10.07
2018-12-22T01:32:01.876Z,10.07
2018-12-22T01:33:01.835Z,10.09
2018-12-22T01:34:01.938Z,10.07
2018-12-22T01:35:07.972Z,10.10
2018-12-22T01:36:02.031Z,10.13
2018-12-22T01:37:01.959Z,10.04
2018-12-22T01:38:01.949Z,10.04
2018-12-22T01:39:01.969Z,10.01
2018-12-22T01:40:02.050Z,10.16
2018-12-22T01:41:02.022Z,10.16
2018-12-22T01:42:01.989Z,10.17
2018-12-22T01:43:01.988Z,10.18
2018-12-22T01:44:02.011Z,10.11
2018-12-22T01:45:02.043Z,10.07
2018-12-22T01:46:01.836Z,10.02
2018-12-22T01:47:02.010Z,10.13
2018-12-22T01:48:01.977Z,10.16
2018-12-22T01:49:02.244Z,10.01
2018-12-22T01:50:01.972Z,9.95
2018-12-22T01:51:01.976Z,9.95
2018-12-22T01:52:01.966Z,9.92
2018-12-22T01:53:01.876Z,9.91
2018-12-22T01:54:01.991Z,9.93
2018-12-22T01:55:02.000Z,9.91
2018-12-22T01:56:01.908Z,9.89
2018-12-22T01:57:01.993Z,9.96
2018-12-22T01:58:01.933Z,9.99
2018-12-22T01:59:02.068Z,9.92
2018-12-22T02:00:02.060Z,9.96
2018-12-22T02:01:01.939Z,9.99
2018-12-22T02:02:01.862Z,9.99
2018-12-22T02:03:01.902Z,10.06
2018-12-22T02:04:01.989Z,9.96
2018-12-22T02:05:02.011Z,10.06
2018-12-22T02:06:03.996Z,10.02
2018-12-22T02:07:02.005Z,10.10
2018-12-22T02:08:01.994Z,10.11
2018-12-22T02:09:01.961Z,10.14
2018-12-22T02:10:01.844Z,9.98
2018-12-22T02:11:02.019Z,10.04
2018-12-22T02:12:02.017Z,10.06
2018-12-22T02:13:01.979Z,10.10
2018-12-22T02:14:02.014Z,10.13
2018-12-22T02:15:02.021Z,10.11
2018-12-22T02:16:02.054Z,10.11
2018-12-22T02:17:07.981Z,10.20
2018-12-22T02:18:02.023Z,10.16
2018-12-22T02:19:01.987Z,10.24
2018-12-22T02:20:01.994Z,10.29
2018-12-22T02:21:02.024Z,10.29
2018-12-22T02:22:02.055Z,10.28
2018-12-22T02:23:01.385Z,10.31
2018-12-22T02:24:02.032Z,10.25
2018-12-22T02:25:02.056Z,10.28
2018-12-22T02:26:02.057Z,10.31
2018-12-22T02:27:01.497Z,10.28
2018-12-22T02:28:01.449Z,10.29
2018-12-22T02:29:01.511Z,10.25
2018-12-22T02:30:01.536Z,10.29
2018-12-22T02:31:01.454Z,10.35
2018-12-22T02:32:01.462Z,10.25
2018-12-22T02:33:01.888Z,10.25
2018-12-22T02:34:01.783Z,10.31
2018-12-22T02:35:01.497Z,10.38
2018-12-22T02:36:01.499Z,10.32
2018-12-22T02:37:02.016Z,10.34
2018-12-22T02:38:01.837Z,10.31
2018-12-22T02:39:01.519Z,10.35
2018-12-22T02:40:01.773Z,10.28
2018-12-22T02:41:01.440Z,10.28
2018-12-22T02:42:01.450Z,10.36
2018-12-22T02:43:01.481Z,10.28
2018-12-22T02:44:01.471Z,10.34
2018-12-22T02:45:01.528Z,10.26
2018-12-22T02:46:01.495Z,10.28
2018-12-22T02:47:01.556Z,10.25
2018-12-22T02:48:01.520Z,10.25
2018-12-22T02:49:01.520Z,10.20
2018-12-22T02:51:01.534Z,10.25
2018-12-22T02:52:01.407Z,10.32
2018-12-22T02:53:01.503Z,10.24
2018-12-22T02:54:01.475Z,10.34
2018-12-22T02:55:01.500Z,10.31
2018-12-22T02:56:01.546Z,10.22
2018-12-22T02:57:01.494Z,10.31
2018-12-22T02:58:01.550Z,10.35
2018-12-22T02:59:05.862Z,10.25
2018-12-22T03:00:07.516Z,10.28
2018-12-22T03:01:01.531Z,10.31
2018-12-22T03:02:01.460Z,10.17
2018-12-22T03:03:01.457Z,10.32
2018-12-22T03:04:01.512Z,10.29
2018-12-22T03:05:01.481Z,10.28
2018-12-22T03:06:01.419Z,10.34
2018-12-22T03:07:01.476Z,10.31
2018-12-22T03:08:01.397Z,10.34
2018-12-22T03:09:01.517Z,10.34
2018-12-22T03:10:01.553Z,10.31
2018-12-22T03:11:07.498Z,10.29
2018-12-22T03:12:01.477Z,10.28
2018-12-22T03:13:01.496Z,10.35
2018-12-22T03:14:01.558Z,10.34
2018-12-22T03:15:01.525Z,10.28
2018-12-22T03:16:01.515Z,10.24
2018-12-22T03:17:01.533Z,10.28
2018-12-22T03:18:01.528Z,10.28
2018-12-22T03:19:01.569Z,10.36
2018-12-22T03:20:01.560Z,10.36
2018-12-22T03:21:01.533Z,10.31
2018-12-22T03:22:01.575Z,10.32
2018-12-22T03:23:01.533Z,10.28
2018-12-22T03:24:01.539Z,10.31
2018-12-22T03:25:01.564Z,10.29
2018-12-22T03:26:01.462Z,10.32
2018-12-22T03:27:01.559Z,10.29
2018-12-22T03:28:01.596Z,10.17
2018-12-22T03:29:01.517Z,10.14
2018-12-22T03:30:01.497Z,10.11
2018-12-22T03:31:01.571Z,10.22
2018-12-22T03:32:01.757Z,10.31
2018-12-22T03:33:01.515Z,10.32
2018-12-22T03:34:01.542Z,10.31
2018-12-22T03:35:01.617Z,10.32
2018-12-22T03:36:01.598Z,10.31
2018-12-22T03:37:01.616Z,10.20
2018-12-22T03:38:01.586Z,10.20
2018-12-22T03:39:07.507Z,10.22
2018-12-22T03:40:01.557Z,10.17
2018-12-22T03:41:01.753Z,10.17
2018-12-22T03:42:01.600Z,10.20
2018-12-22T03:43:01.544Z,10.18
2018-12-22T03:44:01.509Z,10.17
2018-12-22T03:45:01.565Z,10.29
2018-12-22T03:46:01.582Z,10.25
2018-12-22T03:47:01.587Z,10.29
2018-12-22T03:48:01.430Z,10.25
2018-12-22T03:49:07.513Z,10.29
2018-12-22T03:50:01.442Z,10.28
2018-12-22T03:51:01.304Z,10.34
2018-12-22T03:52:00.928Z,10.28
2018-12-22T03:53:01.003Z,10.25
2018-12-22T03:54:01.029Z,10.26
2018-12-22T03:55:00.964Z,10.26
2018-12-22T03:56:01.087Z,10.22
2018-12-22T03:57:00.960Z,10.25
2018-12-22T03:58:01.015Z,10.17
2018-12-22T03:59:01.508Z,10.18
2018-12-22T04:00:01.010Z,10.26
2018-12-22T04:01:00.997Z,10.25
2018-12-22T04:02:01.333Z,10.32
2018-12-22T04:03:00.917Z,10.28
2018-12-22T04:04:01.031Z,10.28
2018-12-22T04:05:01.489Z,10.32
2018-12-22T04:06:00.993Z,10.17
2018-12-22T04:07:00.944Z,10.25
2018-12-22T04:08:00.987Z,10.22
2018-12-22T04:09:01.436Z,10.18
2018-12-22T04:10:00.731Z,10.24
2018-12-22T04:11:00.694Z,10.28
2018-12-22T04:12:00.394Z,10.31
2018-12-22T04:13:00.828Z,10.22
2018-12-22T04:14:00.401Z,10.26
2018-12-22T04:15:00.822Z,10.17
2018-12-22T04:16:00.774Z,10.20
2018-12-22T04:17:00.723Z,10.20
2018-12-22T04:18:00.740Z,10.14
2018-12-22T04:19:00.774Z,10.18
2018-12-22T04:20:00.821Z,10.10
2018-12-22T04:21:00.754Z,10.04
2018-12-22T04:22:00.836Z,10.02
2018-12-22T04:23:00.887Z,10.13
2018-12-22T04:24:00.782Z,10.18
2018-12-22T04:25:01.164Z,10.16
2018-12-22T04:26:01.016Z,10.17
2018-12-22T04:27:00.882Z,10.18
2018-12-22T04:28:00.816Z,10.22
2018-12-22T04:29:00.821Z,10.20
2018-12-22T04:30:00.795Z,10.22
2018-12-22T04:31:00.867Z,10.16
2018-12-22T04:32:00.777Z,10.24
2018-12-22T04:33:00.871Z,10.22
2018-12-22T04:34:00.732Z,10.16
2018-12-22T04:35:00.913Z,10.20
2018-12-22T04:36:00.813Z,10.22
2018-12-22T04:37:00.730Z,10.07
2018-12-22T04:38:00.769Z,10.10
2018-12-22T04:39:00.910Z,9.95
2018-12-22T04:40:00.682Z,9.96
2018-12-22T04:41:00.744Z,9.98
2018-12-22T04:42:01.128Z,9.89
2018-12-22T04:43:00.975Z,9.96
2018-12-22T04:44:00.932Z,9.96
2018-12-22T04:45:01.044Z,9.93
2018-12-22T04:46:01.058Z,10.01
2018-12-22T04:47:00.366Z,10.04
2018-12-22T04:48:00.971Z,9.96
2018-12-22T04:49:00.833Z,10.06
2018-12-22T04:50:00.853Z,10.13
2018-12-22T04:51:00.264Z,10.09
2018-12-22T04:52:00.279Z,10.09
2018-12-22T04:53:00.823Z,10.17
2018-12-22T04:54:00.889Z,10.14
2018-12-22T04:55:01.015Z,10.09
2018-12-22T04:56:01.055Z,10.02
2018-12-22T04:57:01.004Z,10.01
2018-12-22T04:58:01.080Z,9.96
2018-12-22T04:59:01.122Z,10.11
2018-12-22T05:00:01.068Z,10.16
2018-12-22T05:01:00.264Z,10.11
2018-12-22T05:02:00.803Z,10.17
2018-12-22T05:03:00.987Z,10.16
2018-12-22T05:04:01.035Z,10.09
2018-12-22T05:05:01.089Z,10.01
2018-12-22T05:06:01.098Z,9.96
2018-12-22T05:07:01.046Z,9.95
2018-12-22T05:08:01.194Z,10.01
2018-12-22T05:09:00.455Z,10.04
2018-12-22T05:10:00.514Z,10.02
2018-12-22T05:11:01.025Z,9.95
2018-12-22T05:12:01.061Z,9.95
2018-12-22T05:13:01.118Z,9.92
2018-12-22T05:14:02.578Z,9.93
2018-12-22T05:15:00.849Z,9.89
2018-12-22T05:16:00.476Z,9.96
2018-12-22T05:17:02.582Z,9.98
2018-12-22T05:18:02.549Z,9.95
2018-12-22T05:19:01.007Z,9.93
2018-12-22T05:20:00.799Z,10.02
2018-12-22T05:21:00.476Z,10.01
2018-12-22T05:22:00.828Z,9.95
2018-12-22T05:23:00.478Z,9.98
2018-12-22T05:24:00.531Z,10.04
2018-12-22T05:25:00.499Z,9.89
2018-12-22T05:26:00.378Z,9.83
2018-12-22T05:27:00.464Z,9.92
2018-12-22T05:28:00.480Z,9.92
2018-12-22T05:29:00.487Z,9.95
2018-12-22T05:30:00.550Z,10.06
2018-12-22T05:31:00.770Z,9.95
2018-12-22T05:32:00.631Z,9.96
2018-12-22T05:33:00.573Z,9.98
2018-12-22T05:34:00.484Z,9.96
2018-12-22T05:35:00.496Z,9.96
2018-12-22T05:36:00.492Z,10.02
2018-12-22T05:37:00.539Z,10.02
2018-12-22T05:38:00.551Z,10.11
2018-12-22T05:39:00.773Z,10.06
2018-12-22T05:40:00.518Z,10.01
2018-12-22T05:41:00.497Z,9.93
2018-12-22T05:42:00.591Z,9.89
2018-12-22T05:43:00.546Z,9.89
2018-12-22T05:44:00.799Z,9.93
2018-12-22T05:45:00.488Z,9.95
2018-12-22T05:46:00.533Z,9.92
2018-12-22T05:47:00.539Z,9.96
2018-12-22T05:48:00.501Z,9.99
2018-12-22T05:49:00.493Z,9.95
2018-12-22T05:50:00.532Z,9.96
2018-12-22T05:51:00.572Z,9.92
2018-12-22T05:52:00.534Z,9.96
2018-12-22T05:53:00.564Z,9.92
2018-12-22T05:54:00.958Z,9.91
2018-12-22T05:54:59.955Z,9.91
2018-12-22T05:56:00.405Z,10.02
2018-12-22T05:57:00.228Z,9.96
2018-12-22T05:57:59.714Z,9.98
2018-12-22T05:58:59.758Z,9.99
2018-12-22T06:00:00.920Z,9.95
2018-12-22T06:01:06.842Z,9.92
2018-12-22T06:02:00.587Z,9.89
2018-12-22T06:03:00.481Z,9.80
2018-12-22T06:04:00.503Z,9.78
2018-12-22T06:05:00.630Z,9.86
2018-12-22T06:06:00.686Z,9.86
2018-12-22T06:07:01.083Z,9.78
2018-12-22T06:08:00.391Z,9.91
2018-12-22T06:09:00.008Z,9.92
2018-12-22T06:10:00.631Z,9.89
2018-12-22T06:11:00.552Z,10.07
2018-12-22T06:11:59.775Z,9.99
2018-12-22T06:13:00.333Z,9.98
2018-12-22T06:14:00.270Z,10.06
2018-12-22T06:14:59.653Z,10.17
2018-12-22T06:16:00.360Z,10.09
2018-12-22T06:17:00.556Z,10.16
2018-12-22T06:18:00.505Z,10.17
2018-12-22T06:19:00.557Z,10.26
2018-12-22T06:20:00.580Z,10.35
2018-12-22T06:21:00.544Z,10.24
2018-12-22T06:22:00.918Z,10.32
2018-12-22T06:23:00.460Z,10.28
2018-12-22T06:24:00.345Z,10.39
2018-12-22T06:25:00.335Z,10.42
2018-12-22T06:26:00.497Z,10.26
2018-12-22T06:26:59.731Z,10.38
2018-12-22T06:28:00.595Z,10.34
2018-12-22T06:29:00.556Z,10.35
2018-12-22T06:30:08.789Z,10.32
2018-12-22T06:31:06.298Z,10.36
2018-12-22T06:31:59.162Z,10.38
2018-12-22T06:33:00.185Z,10.39
2018-12-22T06:34:00.504Z,10.55
2018-12-22T06:35:00.223Z,10.51
2018-12-22T06:36:00.162Z,10.51
2018-12-22T06:37:01.917Z,10.51
2018-12-22T06:38:00.256Z,10.47
2018-12-22T06:38:59.944Z,10.57
2018-12-22T06:39:59.679Z,10.60
2018-12-22T06:41:00.161Z,10.58
2018-12-22T06:41:59.933Z,10.57
2018-12-22T06:42:59.833Z,10.63
2018-12-22T06:44:00.088Z,10.55
2018-12-22T06:44:59.975Z,10.55
2018-12-22T06:45:59.741Z,10.52
2018-12-22T06:46:59.977Z,10.52
2018-12-22T06:47:59.949Z,10.58
2018-12-22T06:48:59.915Z,10.66
2018-12-22T06:50:02.029Z,10.65
2018-12-22T06:51:00.144Z,10.62
2018-12-22T06:51:59.680Z,10.58
2018-12-22T06:53:00.061Z,10.70
2018-12-22T06:53:59.994Z,10.65
2018-12-22T06:55:00.086Z,10.65
2018-12-22T06:56:00.090Z,10.60
2018-12-22T06:56:59.502Z,10.55
2018-12-22T06:58:00.035Z,10.58
2018-12-22T06:59:00.008Z,10.60
2018-12-22T07:00:00.173Z,10.55
2018-12-22T07:01:00.052Z,10.66
2018-12-22T07:02:00.001Z,10.58
2018-12-22T07:03:00.047Z,10.70
2018-12-22T07:04:00.061Z,10.62
2018-12-22T07:05:02.064Z,10.62
2018-12-22T07:06:00.063Z,10.65
2018-12-22T07:07:00.054Z,10.70
2018-12-22T07:08:00.013Z,10.66
2018-12-22T07:09:00.048Z,10.57
2018-12-22T07:10:00.265Z,10.51
2018-12-22T07:11:00.087Z,10.62
2018-12-22T07:12:05.678Z,10.58
2018-12-22T07:12:59.906Z,10.63
2018-12-22T07:13:59.786Z,10.58
2018-12-22T07:15:00.054Z,10.58
2018-12-22T07:16:00.499Z,10.66
2018-12-22T07:16:59.541Z,10.49
2018-12-22T07:18:00.047Z,10.55
2018-12-22T07:18:59.966Z,10.57
2018-12-22T07:19:59.990Z,10.62
2018-12-22T07:21:00.016Z,10.54
2018-12-22T07:22:00.118Z,10.62
2018-12-22T07:23:00.144Z,10.65
2018-12-22T07:23:59.904Z,10.60
2018-12-22T07:25:00.041Z,10.66
2018-12-22T07:26:00.113Z,10.46
2018-12-22T07:27:00.116Z,10.51
2018-12-22T07:28:00.063Z,10.55
2018-12-22T07:28:59.579Z,10.60
2018-12-22T07:29:59.956Z,10.54
2018-12-22T07:31:00.026Z,10.60
2018-12-22T07:31:59.682Z,10.60
2018-12-22T07:32:59.311Z,10.52
2018-12-22T07:33:59.904Z,10.46
2018-12-22T07:34:58.877Z,10.52
2018-12-22T07:36:00.443Z,10.69
2018-12-22T07:36:59.785Z,10.49
2018-12-22T07:37:59.766Z,10.62
2018-12-22T07:39:00.484Z,10.60
2018-12-22T07:39:59.931Z,10.51
2018-12-22T07:40:59.694Z,10.43
2018-12-22T07:42:00.078Z,10.39
2018-12-22T07:43:00.517Z,10.39
2018-12-22T07:43:59.848Z,10.43
2018-12-22T07:45:00.114Z,10.35
2018-12-22T07:46:00.074Z,10.36
2018-12-22T07:47:00.049Z,10.36
2018-12-22T07:48:00.053Z,10.31
2018-12-22T07:49:00.074Z,10.29
2018-12-22T07:49:59.562Z,10.24
2018-12-22T07:51:00.036Z,10.29
2018-12-22T07:52:00.154Z,10.31
2018-12-22T07:53:00.109Z,10.26
2018-12-22T07:54:00.116Z,10.31
2018-12-22T07:55:00.149Z,10.26
2018-12-22T07:55:59.499Z,10.34
2018-12-22T07:57:00.092Z,10.26
2018-12-22T07:58:00.127Z,10.28
2018-12-22T07:58:59.123Z,10.29
2018-12-22T08:00:00.158Z,10.25
2018-12-22T08:00:59.573Z,10.26
2018-12-22T08:01:59.960Z,10.25
2018-12-22T08:02:59.549Z,10.31
2018-12-22T08:03:59.266Z,10.28
2018-12-22T08:04:59.365Z,10.31
2018-12-22T08:05:59.630Z,10.29
2018-12-22T08:07:00.167Z,10.28
2018-12-22T08:08:00.040Z,10.24
2018-12-22T08:09:00.262Z,10.28
2018-12-22T08:10:01.570Z,10.28
2018-12-22T08:11:01.587Z,10.29
2018-12-22T08:12:02.041Z,10.25
2018-12-22T08:13:59.938Z,10.25
2018-12-22T08:15:00.012Z,10.26
2018-12-22T08:15:59.421Z,10.24
2018-12-22T08:16:58.979Z,10.29
2018-12-22T08:17:59.335Z,10.26
2018-12-22T08:18:59.573Z,10.22
2018-12-22T08:19:59.552Z,10.28
2018-12-22T08:20:59.605Z,10.29
2018-12-22T08:21:59.626Z,10.25
2018-12-22T08:22:59.001Z,10.29
2018-12-22T08:23:59.507Z,10.25
2018-12-22T08:24:59.051Z,10.18
2018-12-22T08:25:59.573Z,10.18
2018-12-22T08:26:59.554Z,10.14
2018-12-22T08:27:59.585Z,10.22
2018-12-22T08:28:59.584Z,10.13
2018-12-22T08:29:59.578Z,10.22
2018-12-22T08:30:59.442Z,10.16
2018-12-22T08:31:59.651Z,10.16
2018-12-22T08:32:59.532Z,10.04
2018-12-22T08:34:00.014Z,10.09
2018-12-22T08:34:59.486Z,10.06
2018-12-22T08:35:59.322Z,10.24
2018-12-22T08:36:59.509Z,10.13
2018-12-22T08:37:59.266Z,10.16
2018-12-22T08:38:59.369Z,10.16
2018-12-22T08:40:26.652Z,10.16
2018-12-22T08:40:59.344Z,10.11
2018-12-22T08:42:05.253Z,10.06
2018-12-22T08:42:59.595Z,10.13
2018-12-22T08:43:59.562Z,10.11
2018-12-22T08:45:00.042Z,10.07
2018-12-22T08:45:59.989Z,10.20
2018-12-22T08:46:59.043Z,10.24
2018-12-22T08:47:59.621Z,10.10
2018-12-22T08:48:59.658Z,10.17
2018-12-22T08:50:21.028Z,10.17
2018-12-22T08:50:58.957Z,10.20
2018-12-22T08:51:59.306Z,10.13
2018-12-22T08:52:59.675Z,10.10
2018-12-22T08:53:59.112Z,10.09
2018-12-22T08:54:59.523Z,10.22
2018-12-22T08:55:59.566Z,10.18
2018-12-22T08:56:59.100Z,10.16
2018-12-22T08:58:20.060Z,10.06
2018-12-22T08:58:59.975Z,10.07
2018-12-22T08:59:59.290Z,10.13
2018-12-22T09:00:59.605Z,10.18
2018-12-22T09:01:59.077Z,10.20
2018-12-22T09:02:59.505Z,10.13
2018-12-22T09:03:59.661Z,10.16
2018-12-22T09:04:58.957Z,10.18
2018-12-22T09:05:59.163Z,10.07
2018-12-22T09:08:32.675Z,10.06
2018-12-22T09:09:32.706Z,10.13
2018-12-22T09:11:26.667Z,10.22
2018-12-22T09:12:27.022Z,10.18
2018-12-22T09:13:27.520Z,10.20
2018-12-22T09:14:26.987Z,10.18
2018-12-22T09:15:27.500Z,10.18
2018-12-22T09:16:26.507Z,10.26
2018-12-22T09:17:26.985Z,10.24
2018-12-22T09:18:27.640Z,10.17
2018-12-22T09:19:27.275Z,10.24
2018-12-22T09:20:27.515Z,10.22
2018-12-22T09:21:27.650Z,10.16
2018-12-22T09:22:27.483Z,10.17
2018-12-22T09:23:27.499Z,10.18
2018-12-22T09:24:27.464Z,10.06
2018-12-22T09:25:27.466Z,10.11
2018-12-22T09:26:27.498Z,9.98
2018-12-22T09:27:27.501Z,9.89
2018-12-22T09:28:27.554Z,9.91
2018-12-22T09:29:27.955Z,9.88
2018-12-22T09:30:27.169Z,9.77
2018-12-22T09:31:27.596Z,9.92
2018-12-22T09:32:27.589Z,10.01
2018-12-22T09:33:27.924Z,9.99
2018-12-22T09:34:27.319Z,9.92
2018-12-22T09:35:27.157Z,9.96
2018-12-22T09:36:27.576Z,9.98
2018-12-22T09:37:27.904Z,9.92
2018-12-22T09:38:27.502Z,10.09
2018-12-22T09:39:27.503Z,9.93
2018-12-22T09:40:27.501Z,9.96
2018-12-22T09:41:33.976Z,9.95
2018-12-22T09:42:27.138Z,10.02
2018-12-22T09:43:27.526Z,9.92
2018-12-22T09:44:27.919Z,9.93
2018-12-22T09:45:27.028Z,9.88
2018-12-22T09:47:27.066Z,10.01
2018-12-22T09:48:27.542Z,9.91
2018-12-22T09:49:27.957Z,9.83
2018-12-22T09:50:26.953Z,9.88
2018-12-22T09:51:26.933Z,9.92
2018-12-22T09:52:33.380Z,9.68
2018-12-22T09:53:26.754Z,9.78
2018-12-22T09:54:26.957Z,9.85
2018-12-22T09:55:26.978Z,9.91
2018-12-22T09:56:27.431Z,9.96
2018-12-22T09:57:26.954Z,9.91
2018-12-22T09:58:26.994Z,9.93
2018-12-22T09:59:27.254Z,9.95
2018-12-22T10:00:26.678Z,9.89
2018-12-22T10:01:26.541Z,9.96
2018-12-22T10:02:25.956Z,9.92
2018-12-22T10:03:26.392Z,9.91
2018-12-22T10:04:29.378Z,9.86
2018-12-22T10:05:27.085Z,9.77
2018-12-22T10:06:27.252Z,9.86
2018-12-22T10:07:26.662Z,9.91
2018-12-22T10:08:27.067Z,9.89
2018-12-22T10:09:27.034Z,9.85
2018-12-22T10:10:27.607Z,9.91
2018-12-22T10:11:27.155Z,9.88
2018-12-22T10:12:27.665Z,9.85
2018-12-22T10:13:26.860Z,9.88
2018-12-22T10:14:27.038Z,9.75
2018-12-22T10:15:26.943Z,9.75
2018-12-22T10:16:27.453Z,9.78
2018-12-22T10:17:27.070Z,9.85
2018-12-22T10:18:27.313Z,9.89
2018-12-22T10:19:26.909Z,10.01
2018-12-22T10:20:26.752Z,10.02
2018-12-22T10:21:27.433Z,10.10
2018-12-22T10:22:27.425Z,10.07
2018-12-22T10:23:26.472Z,10.04
2018-12-22T10:24:27.018Z,10.04
2018-12-22T10:25:27.125Z,10.13
2018-12-22T10:26:27.025Z,10.22
2018-12-22T10:27:27.049Z,10.16
2018-12-22T10:28:26.922Z,10.14
2018-12-22T10:29:27.033Z,10.20
2018-12-22T10:30:27.005Z,10.22
2018-12-22T10:31:27.284Z,10.14
2018-12-22T10:32:27.042Z,10.10
2018-12-22T10:33:33.968Z,10.11
2018-12-22T10:34:27.046Z,10.11
2018-12-22T10:35:27.053Z,10.18
2018-12-22T10:37:27.466Z,10.10
2018-12-22T10:38:27.128Z,10.17
2018-12-22T10:39:27.416Z,10.22
2018-12-22T10:40:26.763Z,10.20
2018-12-22T10:41:26.646Z,10.26
2018-12-22T10:42:26.217Z,10.13
2018-12-22T10:43:26.730Z,10.28
2018-12-22T10:44:26.846Z,10.18
2018-12-22T10:45:29.474Z,10.18
2018-12-22T10:46:29.469Z,10.34
2018-12-22T10:47:27.302Z,10.25
2018-12-22T10:48:27.435Z,10.31
2018-12-22T10:49:27.028Z,10.26
2018-12-22T10:50:27.038Z,10.28
2018-12-22T10:52:59.863Z,10.32
2018-12-22T10:54:00.227Z,10.25
2018-12-22T10:55:54.356Z,10.22
2018-12-22T10:56:55.073Z,10.31
2018-12-22T10:58:49.098Z,10.28
2018-12-22T10:59:50.071Z,10.29
2018-12-22T11:01:44.188Z,10.29
2018-12-22T11:02:43.794Z,10.28
2018-12-22T11:04:39.016Z,10.38
2018-12-22T11:05:38.593Z,10.38
2018-12-22T11:07:32.722Z,10.31
2018-12-22T11:08:33.077Z,10.26
2018-12-22T11:10:28.123Z,10.39
2018-12-22T11:11:28.327Z,10.47
2018-12-22T11:13:22.416Z,10.44
2018-12-22T11:14:22.591Z,10.43
2018-12-22T11:16:17.553Z,10.43
2018-12-22T11:17:17.999Z,10.44
2018-12-22T11:19:11.380Z,10.39
2018-12-22T11:20:11.828Z,10.49
2018-12-22T11:22:05.878Z,10.43
2018-12-22T11:23:06.591Z,10.43
2018-12-22T11:25:00.499Z,10.51
2018-12-22T11:26:01.941Z,10.46
2018-12-22T11:27:56.118Z,10.52
2018-12-22T11:28:54.994Z,10.47
2018-12-22T11:30:50.463Z,10.63
2018-12-22T11:31:50.115Z,10.62
2018-12-22T11:33:45.267Z,10.70
2018-12-22T11:34:45.446Z,10.93
2018-12-22T11:36:39.438Z,11.41
2018-12-22T11:38:53.993Z,11.56
2018-12-22T11:39:54.083Z,11.42
2018-12-22T11:41:48.922Z,11.44
2018-12-22T11:42:49.403Z,11.30
2018-12-22T11:43:48.949Z,11.38
2018-12-22T11:44:48.993Z,11.28
2018-12-22T11:45:49.915Z,11.28
2018-12-22T11:46:49.874Z,11.36
2018-12-22T11:47:49.365Z,11.11
2018-12-22T11:48:49.267Z,11.17
2018-12-22T11:49:49.872Z,11.30
2018-12-22T11:50:49.442Z,11.56
2018-12-22T11:51:49.492Z,11.49
2018-12-22T11:52:49.573Z,11.28
2018-12-22T11:53:49.744Z,11.27
2018-12-22T11:55:49.189Z,11.24
2018-12-22T11:56:49.225Z,11.31
2018-12-22T11:57:48.568Z,11.33
2018-12-22T11:58:49.144Z,11.30
2018-12-22T11:59:49.257Z,11.31
2018-12-22T12:00:49.473Z,11.28
2018-12-22T12:01:49.364Z,11.20
2018-12-22T12:02:48.532Z,11.27
2018-12-22T12:03:49.204Z,11.30
2018-12-22T12:04:49.523Z,11.30
2018-12-22T12:05:49.478Z,11.31
2018-12-22T12:06:49.879Z,11.27
2018-12-22T12:07:49.499Z,11.27
2018-12-22T12:08:49.413Z,11.27
2018-12-22T12:09:49.428Z,11.17
2018-12-22T12:10:49.157Z,11.19
2018-12-22T12:11:49.486Z,11.31
2018-12-22T12:12:49.383Z,11.26
2018-12-22T12:13:49.544Z,11.27
2018-12-22T12:14:48.576Z,11.30
2018-12-22T12:15:49.423Z,11.38
2018-12-22T12:16:49.416Z,11.45
2018-12-22T12:17:49.385Z,11.44
2018-12-22T12:18:49.119Z,11.27
2018-12-22T12:19:49.880Z,11.13
2018-12-22T12:20:49.918Z,11.03
2018-12-22T12:21:49.275Z,11.11
2018-12-22T12:22:49.460Z,11.31
2018-12-22T12:23:48.754Z,11.17
2018-12-22T12:24:49.921Z,11.03
2018-12-22T12:25:49.279Z,11.01
2018-12-22T12:26:48.850Z,11.12
2018-12-22T12:27:50.629Z,11.05
2018-12-22T12:28:48.521Z,11.11
2018-12-22T12:29:51.042Z,11.05
2018-12-22T12:30:50.977Z,11.06
2018-12-22T12:31:52.105Z,10.87
2018-12-22T12:32:49.253Z,11.05
2018-12-22T12:33:49.554Z,11.05
2018-12-22T12:34:48.402Z,10.93
2018-12-22T12:35:54.677Z,11.02
2018-12-22T12:36:48.915Z,11.03
2018-12-22T12:37:49.558Z,10.95
2018-12-22T12:38:48.927Z,10.98
2018-12-22T12:39:49.224Z,10.95
2018-12-22T12:40:49.066Z,10.94
2018-12-22T12:41:49.009Z,10.90
2018-12-22T12:42:49.404Z,10.98
2018-12-22T12:43:48.671Z,10.91
2018-12-22T12:44:48.932Z,10.93
2018-12-22T12:45:48.987Z,10.98
2018-12-22T12:46:49.094Z,10.75
2018-12-22T12:47:48.429Z,10.90
2018-12-22T12:48:48.693Z,10.98
2018-12-22T12:49:48.782Z,11.12
2018-12-22T12:50:48.787Z,10.99
2018-12-22T12:51:49.427Z,11.11
2018-12-22T12:52:48.699Z,11.06
2018-12-22T12:53:48.849Z,11.06
2018-12-22T12:54:48.787Z,11.01
2018-12-22T12:55:48.943Z,11.03
2018-12-22T12:56:49.029Z,11.06
2018-12-22T12:57:48.905Z,10.91
2018-12-22T12:58:49.010Z,11.01
2018-12-22T12:59:49.393Z,11.05
2018-12-22T13:00:48.684Z,11.05
2018-12-22T13:01:49.052Z,11.03
2018-12-22T13:02:48.895Z,11.09
2018-12-22T13:03:48.505Z,11.03
2018-12-22T13:04:49.413Z,11.08
2018-12-22T13:05:49.424Z,11.01
2018-12-22T13:06:48.439Z,11.13
2018-12-22T13:07:49.373Z,11.12
2018-12-22T13:08:48.605Z,11.08
2018-12-22T13:09:49.387Z,11.11
2018-12-22T13:10:49.152Z,11.03
2018-12-22T13:11:48.519Z,11.02
2018-12-22T13:12:49.062Z,11.17
2018-12-22T13:13:48.970Z,11.09
2018-12-22T13:14:48.979Z,11.11
2018-12-22T13:15:48.972Z,11.02
2018-12-22T13:16:48.982Z,11.08
2018-12-22T13:17:49.436Z,11.11
2018-12-22T13:18:48.226Z,11.17
2018-12-22T13:19:48.978Z,11.16
2018-12-22T13:20:49.429Z,11.24
2018-12-22T13:21:48.489Z,11.13